Time,TemperatureF,DewpointF,PressureIn,WindDirection,WindDirectionDegrees,WindSpeedMPH,WindSpeedGustMPH,Humidity,HourlyPrecipIn,Conditions,Clouds,dailyrainin,SoftwareType,DateUTC
2013-07-08 00:00:00,72.0,68.6,23.50,South,188,0.0,0.0,89,0.00,,---,0.01,VWS V14.00,2013-07-08 04:00:00,
2013-07-08 00:01:00,72.0,68.6,23.50,South,188,0.0,0.0,89,0.00,,---,0.01,VWS V14.00,2013-07-08 04:01:00,
2013-07-08 00:03:00,72.2,68.8,23.50,South,188,0.0,0.0,89,0.00,,---,0.01,VWS V14.00,2013-07-08 04:03:00,
2013-07-08 00:05:00,72.2,68.8,23.50,South,188,0.0,0.0,89,0.00,,---,0.01,VWS V14.00,2013-07-08 04:05:00,
2013-07-08 00:10:00,72.3,68.9,23.50,South,188,0.0,0.0,89,0.00,,---,0.00,VWS V14.00,2013-07-08 04:10:00,
2013-07-08 00:15:00,72.1,68.7,23.50,South,188,0.0,0.0,89,0.00,,---,0.00,VWS V14.00,2013-07-08 04:15:00,
2013-07-08 00:20:00,72.0,68.6,23.50,South,188,0.0,0.0,89,0.00,,---,0.00,VWS V14.00,2013-07-08 04:20:00,
2013-07-08 00:25:00,71.8,68.4,23.50,South,188,0.0,0.0,89,0.00,,---,0.00,VWS V14.00,2013-07-08 04:25:00,
2013-07-08 00:30:00,71.7,68.3,23.50,South,188,0.0,0.0,89,0.00,,---,0.00,VWS V14.00,2013-07-08 04:30:00,
2013-07-08 00:35:00,71.7,68.3,23.50,South,188,0.0,0.0,89,0.00,,---,0.00,VWS V14.00,2013-07-08 04:35:00,
2013-07-08 00:40:00,71.7,68.3,23.50,South,188,0.0,0.0,89,0.00,,---,0.00,VWS V14.00,2013-07-08 04:40:00,
2013-07-08 00:45:00,71.7,68.3,23.50,South,188,0.0,0.0,89,0.00,,---,0.00,VWS V14.00,2013-07-08 04:45:00,
2013-07-08 00:50:00,71.7,68.3,23.50,South,188,0.0,0.0,89,0.00,,---,0.00,VWS V14.00,2013-07-08 04:50:00,
2013-07-08 00:55:00,71.5,68.1,23.50,South,188,0.0,0.0,89,0.00,,---,0.00,VWS V14.00,2013-07-08 04:55:00,
2013-07-08 01:00:00,71.5,68.1,23.50,South,188,0.0,0.0,89,0.00,,---,0.00,VWS V14.00,2013-07-08 05:00:00,
2013-07-08 01:05:00,71.4,68.0,23.50,South,188,0.0,0.0,89,0.00,,---,0.00,VWS V14.00,2013-07-08 05:05:00,
2013-07-08 01:10:00,71.3,67.9,23.50,South,188,0.0,0.0,89,0.00,,---,0.00,VWS V14.00,2013-07-08 05:10:00,
2013-07-08 01:16:00,71.3,67.9,23.50,South,188,0.0,0.0,89,0.00,,---,0.00,VWS V14.00,2013-07-08 05:16:00,
2013-07-08 01:21:00,71.4,68.0,23.50,South,189,2.0,4.0,89,0.00,,---,0.00,VWS V14.00,2013-07-08 05:21:00,
2013-07-08 01:26:00,71.7,68.3,23.50,South,190,0.0,4.0,89,0.00,,---,0.00,VWS V14.00,2013-07-08 05:26:00,
2013-07-08 01:31:00,71.9,68.5,23.50,South,190,0.0,4.0,89,0.00,,---,0.00,VWS V14.00,2013-07-08 05:31:00,
2013-07-08 01:36:00,72.0,68.3,23.50,South,190,2.0,4.0,88,0.00,,---,0.00,VWS V14.00,2013-07-08 05:36:00,
2013-07-08 01:41:00,72.1,68.0,23.50,SSW,195,2.0,4.0,87,0.00,,---,0.00,VWS V14.00,2013-07-08 05:41:00,
2013-07-08 01:46:00,72.2,68.1,23.50,SW,225,0.0,4.0,87,0.00,,---,0.00,VWS V14.00,2013-07-08 05:46:00,
2013-07-08 01:51:00,72.2,68.1,23.50,SW,225,2.0,4.0,87,0.00,,---,0.00,VWS V14.00,2013-07-08 05:51:00,
2013-07-08 01:56:00,72.2,67.8,23.50,SW,225,0.0,4.0,86,0.00,,---,0.00,VWS V14.00,2013-07-08 05:56:00,
2013-07-08 02:01:00,72.1,68.0,23.50,SW,225,0.0,4.0,87,0.00,,---,0.00,VWS V14.00,2013-07-08 06:01:00,
2013-07-08 02:06:00,72.0,67.9,23.50,SW,224,0.0,4.0,87,0.00,,---,0.00,VWS V14.00,2013-07-08 06:06:00,
2013-07-08 02:11:00,72.0,67.9,23.50,SW,214,0.0,4.0,87,0.00,,---,0.00,VWS V14.00,2013-07-08 06:11:00,
2013-07-08 02:16:00,72.0,67.9,23.50,SSW,213,2.0,4.0,87,0.00,,---,0.00,VWS V14.00,2013-07-08 06:16:00,
2013-07-08 02:21:00,72.0,67.9,23.50,SW,217,2.0,4.0,87,0.00,,---,0.00,VWS V14.00,2013-07-08 06:21:00,
2013-07-08 02:26:00,72.1,68.0,23.50,SW,217,0.0,4.0,87,0.00,,---,0.00,VWS V14.00,2013-07-08 06:26:00,
2013-07-08 02:31:00,72.1,67.7,23.50,SW,218,0.0,4.0,86,0.00,,---,0.00,VWS V14.00,2013-07-08 06:31:00,
2013-07-08 02:36:00,72.0,67.6,23.50,SW,218,1.0,4.0,86,0.00,,---,0.00,VWS V14.00,2013-07-08 06:36:00,
2013-07-08 02:42:00,71.9,67.8,23.50,SW,218,0.0,2.0,87,0.00,,---,0.00,VWS V14.00,2013-07-08 06:42:00,
2013-07-08 02:47:00,71.8,67.7,23.50,SW,218,0.0,2.0,87,0.00,,---,0.00,VWS V14.00,2013-07-08 06:47:00,
2013-07-08 02:52:00,71.6,67.5,23.50,SW,218,1.0,2.0,87,0.00,,---,0.00,VWS V14.00,2013-07-08 06:52:00,
2013-07-08 02:57:00,71.3,67.2,23.50,SW,218,0.0,2.0,87,0.00,,---,0.00,VWS V14.00,2013-07-08 06:57:00,
2013-07-08 03:02:00,71.3,67.2,23.50,SW,218,0.0,2.0,87,0.00,,---,0.00,VWS V14.00,2013-07-08 07:02:00,
2013-07-08 03:07:00,71.2,67.5,29.13,SW,218,0.0,0.0,88,0.00,,---,0.00,VWS V14.00,2013-07-08 07:07:00,
2013-07-08 03:12:00,71.2,67.5,29.13,SW,218,1.0,3.0,88,0.00,,---,0.00,VWS V14.00,2013-07-08 07:12:00,
2013-07-08 03:17:00,71.3,67.6,29.13,SW,218,0.0,3.0,88,0.00,,---,0.00,VWS V14.00,2013-07-08 07:17:00,
2013-07-08 03:22:00,71.3,67.6,29.13,SW,218,2.0,3.0,88,0.00,,---,0.00,VWS V14.00,2013-07-08 07:22:00,
2013-07-08 03:27:00,71.2,67.5,29.13,SW,218,0.0,3.0,88,0.00,,---,0.00,VWS V14.00,2013-07-08 07:27:00,
2013-07-08 03:32:00,71.2,67.5,29.13,SW,218,0.0,3.0,88,0.00,,---,0.00,VWS V14.00,2013-07-08 07:32:00,
2013-07-08 03:37:00,71.1,67.4,29.13,SW,218,2.0,2.0,88,0.00,,---,0.00,VWS V14.00,2013-07-08 07:37:00,
2013-07-08 03:42:00,70.9,67.2,29.13,SW,218,1.0,3.0,88,0.00,,---,0.00,VWS V14.00,2013-07-08 07:42:00,
2013-07-08 03:47:00,70.9,67.2,29.13,SW,218,0.0,3.0,88,0.00,,---,0.00,VWS V14.00,2013-07-08 07:47:00,
2013-07-08 03:52:00,70.8,67.1,29.13,SW,218,0.0,3.0,88,0.00,,---,0.00,VWS V14.00,2013-07-08 07:52:00,
2013-07-08 03:57:00,70.7,67.3,28.04,SW,218,0.0,3.0,89,0.00,,---,0.00,VWS V14.00,2013-07-08 07:57:00,
2013-07-08 04:02:00,70.7,67.3,28.04,SW,218,1.0,3.0,89,0.00,,---,0.00,VWS V14.00,2013-07-08 08:02:00,
2013-07-08 04:08:00,70.7,67.3,28.04,SW,218,2.0,3.0,89,0.00,,---,0.00,VWS V14.00,2013-07-08 08:08:00,
2013-07-08 04:13:00,70.6,67.2,28.04,SW,218,0.0,3.0,89,0.00,,---,0.00,VWS V14.00,2013-07-08 08:13:00,
2013-07-08 04:18:00,70.6,67.2,28.04,SW,218,0.0,3.0,89,0.00,,---,0.00,VWS V14.00,2013-07-08 08:18:00,
2013-07-08 04:23:00,70.5,67.1,28.04,SW,218,0.0,3.0,89,0.00,,---,0.00,VWS V14.00,2013-07-08 08:23:00,
2013-07-08 04:28:00,70.4,67.0,28.04,SW,218,0.0,3.0,89,0.00,,---,0.00,VWS V14.00,2013-07-08 08:28:00,
2013-07-08 04:33:00,70.3,66.9,28.04,SW,218,0.0,3.0,89,0.00,,---,0.00,VWS V14.00,2013-07-08 08:33:00,
2013-07-08 04:38:00,70.3,66.9,28.04,SW,218,0.0,2.0,89,0.00,,---,0.00,VWS V14.00,2013-07-08 08:38:00,
2013-07-08 04:43:00,70.3,66.9,28.04,SW,218,0.0,2.0,89,0.00,,---,0.00,VWS V14.00,2013-07-08 08:43:00,
2013-07-08 04:48:00,70.2,66.8,28.04,SW,218,1.0,3.0,89,0.00,,---,0.00,VWS V14.00,2013-07-08 08:48:00,
2013-07-08 04:53:00,69.9,66.8,28.04,SW,218,0.0,3.0,90,0.00,,---,0.00,VWS V14.00,2013-07-08 08:53:00,
2013-07-08 04:58:00,69.9,66.8,28.04,SW,218,0.0,3.0,90,0.00,,---,0.00,VWS V14.00,2013-07-08 08:58:00,
2013-07-08 05:03:00,70.0,66.9,28.04,SW,218,0.0,3.0,90,0.00,,---,0.00,VWS V14.00,2013-07-08 09:03:00,
2013-07-08 05:08:00,70.0,66.9,28.04,SW,218,0.0,0.0,90,0.00,,---,0.00,VWS V14.00,2013-07-08 09:08:00,
2013-07-08 05:13:00,70.1,67.0,28.04,SW,218,0.0,3.0,90,0.00,,---,0.00,VWS V14.00,2013-07-08 09:13:00,
2013-07-08 05:18:00,70.1,67.0,31.86,SW,218,0.0,3.0,90,0.00,,---,0.00,VWS V14.00,2013-07-08 09:18:00,
2013-07-08 05:23:00,70.1,67.0,30.89,SW,218,2.0,3.0,90,0.00,,---,0.00,VWS V14.00,2013-07-08 09:23:00,
2013-07-08 05:28:00,70.1,67.0,30.89,SW,218,1.0,3.0,90,0.00,,---,0.00,VWS V14.00,2013-07-08 09:28:00,
2013-07-08 05:34:00,70.1,67.0,30.89,SW,218,0.0,3.0,90,0.00,,---,0.00,VWS V14.00,2013-07-08 09:34:00,
2013-07-08 05:39:00,70.0,66.9,30.89,SW,218,0.0,3.0,90,0.00,,---,0.00,VWS V14.00,2013-07-08 09:39:00,
2013-07-08 05:44:00,70.0,66.6,30.89,SW,218,2.0,3.0,89,0.00,,---,0.00,VWS V14.00,2013-07-08 09:44:00,
2013-07-08 05:49:00,70.0,66.6,30.89,SW,218,0.0,3.0,89,0.00,,---,0.00,VWS V14.00,2013-07-08 09:49:00,
2013-07-08 05:54:00,69.9,66.5,30.89,SW,218,0.0,3.0,89,0.00,,---,0.00,VWS V14.00,2013-07-08 09:54:00,
2013-07-08 05:59:00,69.9,66.5,30.89,SW,218,3.0,3.0,89,0.00,,---,0.00,VWS V14.00,2013-07-08 09:59:00,
2013-07-08 06:04:00,70.0,66.6,30.89,SW,218,1.0,3.0,89,0.00,,---,0.00,VWS V14.00,2013-07-08 10:04:00,
2013-07-08 06:09:00,70.1,66.7,30.89,SW,218,1.0,3.0,89,0.00,,---,0.00,VWS V14.00,2013-07-08 10:09:00,
2013-07-08 06:14:00,70.1,66.7,30.89,SW,218,0.0,4.0,89,0.00,,---,0.00,VWS V14.00,2013-07-08 10:14:00,
2013-07-08 06:19:00,70.2,66.8,30.89,SSW,202,0.0,4.0,89,0.00,,---,0.00,VWS V14.00,2013-07-08 10:19:00,
2013-07-08 06:24:00,70.1,66.7,30.89,SSW,202,3.0,4.0,89,0.00,,---,0.00,VWS V14.00,2013-07-08 10:24:00,
2013-07-08 06:29:00,70.1,66.7,30.89,SSW,202,0.0,4.0,89,0.00,,---,0.00,VWS V14.00,2013-07-08 10:29:00,
2013-07-08 06:34:00,70.0,66.6,30.89,SSW,202,0.0,4.0,89,0.00,,---,0.00,VWS V14.00,2013-07-08 10:34:00,
2013-07-08 06:39:00,69.9,66.5,30.89,SSW,202,0.0,1.0,89,0.00,,---,0.00,VWS V14.00,2013-07-08 10:39:00,
2013-07-08 06:44:00,69.8,66.4,30.89,SSW,202,2.0,2.0,89,0.00,,---,0.00,VWS V14.00,2013-07-08 10:44:00,
2013-07-08 06:49:00,69.8,66.4,30.89,SSW,202,0.0,3.0,89,0.00,,---,0.00,VWS V14.00,2013-07-08 10:49:00,
2013-07-08 06:54:00,69.9,66.5,30.89,SSW,202,0.0,3.0,89,0.00,,---,0.00,VWS V14.00,2013-07-08 10:54:00,
2013-07-08 07:00:00,70.0,66.6,30.89,SSW,202,0.0,3.0,89,0.00,,---,0.00,VWS V14.00,2013-07-08 11:00:00,
2013-07-08 07:05:00,70.1,66.7,30.89,SSW,202,0.0,3.0,89,0.00,,---,0.00,VWS V14.00,2013-07-08 11:05:00,
2013-07-08 07:10:00,70.3,66.9,30.89,SSW,202,0.0,1.0,89,0.00,,---,0.00,VWS V14.00,2013-07-08 11:10:00,
2013-07-08 07:15:00,70.4,67.0,30.89,SSW,202,0.0,2.0,89,0.00,,---,0.00,VWS V14.00,2013-07-08 11:15:00,
2013-07-08 07:20:00,70.5,67.1,30.89,SSW,202,0.0,2.0,89,0.00,,---,0.00,VWS V14.00,2013-07-08 11:20:00,
2013-07-08 07:25:00,70.7,67.0,30.89,SSW,202,0.0,2.0,88,0.00,,---,0.00,VWS V14.00,2013-07-08 11:25:00,
2013-07-08 07:30:00,71.0,67.3,30.89,SSW,202,0.0,2.0,88,0.00,,---,0.00,VWS V14.00,2013-07-08 11:30:00,
2013-07-08 07:35:00,71.3,67.6,30.89,SSW,199,0.0,3.0,88,0.00,,---,0.00,VWS V14.00,2013-07-08 11:35:00,
2013-07-08 07:40:00,71.7,67.6,30.89,SSW,199,0.0,0.0,87,0.00,,---,0.00,VWS V14.00,2013-07-08 11:40:00,
2013-07-08 07:45:00,71.9,67.8,30.89,SSW,199,1.0,1.0,87,0.00,,---,0.00,VWS V14.00,2013-07-08 11:45:00,
2013-07-08 07:50:00,72.1,67.7,30.89,SSW,198,0.0,2.0,86,0.00,,---,0.00,VWS V14.00,2013-07-08 11:50:00,
2013-07-08 07:55:00,72.4,68.0,30.89,South,179,1.0,3.0,86,0.00,,---,0.00,VWS V14.00,2013-07-08 11:55:00,
2013-07-08 08:00:00,72.6,67.8,30.89,South,180,0.0,3.0,85,0.00,,---,0.00,VWS V14.00,2013-07-08 12:00:00,
2013-07-08 08:05:00,72.9,68.1,30.89,South,180,0.0,3.0,85,0.00,,---,0.00,VWS V14.00,2013-07-08 12:05:00,
2013-07-08 08:10:00,73.1,68.3,30.89,South,180,0.0,2.0,85,0.00,,---,0.00,VWS V14.00,2013-07-08 12:10:00,
2013-07-08 08:16:00,73.2,68.4,30.89,South,178,2.0,6.0,85,0.00,,---,0.00,VWS V14.00,2013-07-08 12:16:00,
2013-07-08 08:21:00,73.2,68.4,30.89,South,171,3.0,6.0,85,0.00,,---,0.00,VWS V14.00,2013-07-08 12:21:00,
2013-07-08 08:26:00,73.4,68.6,30.89,SSE,155,6.0,7.0,85,0.00,,---,0.00,VWS V14.00,2013-07-08 12:26:00,
2013-07-08 08:31:00,73.4,68.3,30.89,SSE,159,4.0,7.0,84,0.00,,---,0.00,VWS V14.00,2013-07-08 12:31:00,
2013-07-08 08:36:00,73.6,68.8,30.89,SSE,167,5.0,7.0,85,0.00,,---,0.00,VWS V14.00,2013-07-08 12:36:00,
2013-07-08 08:41:00,73.7,68.6,30.89,SSE,163,5.0,6.0,84,0.00,,---,0.00,VWS V14.00,2013-07-08 12:41:00,
2013-07-08 08:46:00,73.9,68.8,30.89,SSE,159,5.0,7.0,84,0.00,,---,0.00,VWS V14.00,2013-07-08 12:46:00,
2013-07-08 08:51:00,74.0,68.9,30.89,SSE,155,1.0,9.0,84,0.00,,---,0.00,VWS V14.00,2013-07-08 12:51:00,
2013-07-08 08:56:00,74.3,69.2,30.89,SSE,165,2.0,9.0,84,0.00,,---,0.00,VWS V14.00,2013-07-08 12:56:00,
2013-07-08 09:01:00,74.5,69.0,30.89,SSE,155,5.0,9.0,83,0.00,,---,0.00,VWS V14.00,2013-07-08 13:01:00,
2013-07-08 09:06:00,74.6,69.1,30.89,SSE,152,6.0,9.0,83,0.00,,---,0.00,VWS V14.00,2013-07-08 13:06:00,
2013-07-08 09:11:00,74.8,69.3,24.33,SSE,156,6.0,7.0,83,0.00,,---,0.00,VWS V14.00,2013-07-08 13:11:00,
2013-07-08 09:17:00,74.8,69.3,24.33,SSE,157,4.0,9.0,83,0.00,,---,0.00,VWS V14.00,2013-07-08 13:17:00,
2013-07-08 09:22:00,75.0,69.5,24.33,SSE,163,4.0,9.0,83,0.00,,---,0.00,VWS V14.00,2013-07-08 13:22:00,
2013-07-08 09:27:00,75.1,69.6,24.33,SSE,165,6.0,9.0,83,0.00,,---,0.00,VWS V14.00,2013-07-08 13:27:00,
2013-07-08 09:32:00,75.4,69.9,24.33,South,171,4.0,9.0,83,0.00,,---,0.00,VWS V14.00,2013-07-08 13:32:00,
2013-07-08 09:37:00,75.4,69.9,24.33,SSE,163,5.0,5.0,83,0.00,,---,0.00,VWS V14.00,2013-07-08 13:37:00,
2013-07-08 09:42:00,75.6,70.1,25.20,SSE,159,5.0,7.0,83,0.00,,---,0.00,VWS V14.00,2013-07-08 13:42:00,
2013-07-08 09:47:00,75.8,70.3,25.20,SSE,161,5.0,9.0,83,0.00,,---,0.00,VWS V14.00,2013-07-08 13:47:00,
2013-07-08 09:52:00,76.0,70.1,25.20,SSE,168,7.0,10.0,82,0.00,,---,0.00,VWS V14.00,2013-07-08 13:52:00,
2013-07-08 09:57:00,76.2,70.3,25.20,SSE,155,7.0,10.0,82,0.00,,---,0.00,VWS V14.00,2013-07-08 13:57:00,
2013-07-08 10:02:00,76.4,70.9,25.20,SSE,157,3.0,10.0,83,0.00,,---,0.00,VWS V14.00,2013-07-08 14:02:00,
2013-07-08 10:07:00,76.7,70.8,25.20,South,174,6.0,8.0,82,0.00,,---,0.00,VWS V14.00,2013-07-08 14:07:00,
2013-07-08 10:12:00,77.0,71.1,25.20,SSE,160,4.0,8.0,82,0.00,,---,0.00,VWS V14.00,2013-07-08 14:12:00,
2013-07-08 10:17:00,77.3,71.0,25.20,SSE,152,7.0,8.0,81,0.00,,---,0.00,VWS V14.00,2013-07-08 14:17:00,
2013-07-08 10:23:00,77.7,71.4,25.20,SSE,165,6.0,8.0,81,0.00,,---,0.00,VWS V14.00,2013-07-08 14:23:00,
2013-07-08 10:28:00,78.2,71.5,25.20,SSE,156,4.0,9.0,80,0.00,,---,0.00,VWS V14.00,2013-07-08 14:28:00,
2013-07-08 10:33:00,78.7,71.6,25.20,SSE,159,4.0,9.0,79,0.00,,---,0.00,VWS V14.00,2013-07-08 14:33:00,
2013-07-08 10:38:00,79.0,71.9,25.20,SE,144,7.0,11.0,79,0.00,,---,0.00,VWS V14.00,2013-07-08 14:38:00,
2013-07-08 10:43:00,79.3,71.8,25.20,SSE,155,7.0,11.0,78,0.00,,---,0.00,VWS V14.00,2013-07-08 14:43:00,
2013-07-08 10:48:00,79.6,72.1,25.20,SSE,155,8.0,11.0,78,0.00,,---,0.00,VWS V14.00,2013-07-08 14:48:00,
2013-07-08 10:53:00,79.7,72.2,25.20,SSE,155,5.0,11.0,78,0.00,,---,0.00,VWS V14.00,2013-07-08 14:53:00,
2013-07-08 10:58:00,80.1,72.2,25.20,SSE,156,6.0,11.0,77,0.00,,---,0.00,VWS V14.00,2013-07-08 14:58:00,
2013-07-08 11:03:00,80.6,71.9,25.20,SSW,192,8.0,16.0,75,0.00,,---,0.00,VWS V14.00,2013-07-08 15:03:00,
2013-07-08 11:08:00,81.0,72.3,25.20,SSW,195,10.0,12.0,75,0.00,,---,0.00,VWS V14.00,2013-07-08 15:08:00,
2013-07-08 11:13:00,81.3,71.8,25.20,SSE,152,2.0,17.0,73,0.00,,---,0.00,VWS V14.00,2013-07-08 15:13:00,
2013-07-08 11:18:00,81.4,72.3,25.20,SSE,167,5.0,17.0,74,0.00,,---,0.00,VWS V14.00,2013-07-08 15:18:00,
2013-07-08 11:24:00,81.6,72.5,25.20,South,171,5.0,17.0,74,0.00,,---,0.00,VWS V14.00,2013-07-08 15:24:00,
2013-07-08 11:29:00,81.9,72.8,25.20,SSE,149,7.0,17.0,74,0.00,,---,0.00,VWS V14.00,2013-07-08 15:29:00,
2013-07-08 11:34:00,81.8,72.7,25.20,South,180,3.0,17.0,74,0.00,,---,0.00,VWS V14.00,2013-07-08 15:34:00,
2013-07-08 11:39:00,82.0,72.5,25.20,South,186,5.0,9.0,73,0.00,,---,0.00,VWS V14.00,2013-07-08 15:39:00,
2013-07-08 11:44:00,82.0,72.9,25.20,South,173,5.0,9.0,74,0.00,,---,0.00,VWS V14.00,2013-07-08 15:44:00,
2013-07-08 11:49:00,82.0,72.5,25.20,SE,146,4.0,9.0,73,0.00,,---,0.00,VWS V14.00,2013-07-08 15:49:00,
2013-07-08 11:54:00,82.2,72.7,25.20,SSE,158,3.0,9.0,73,0.00,,---,0.00,VWS V14.00,2013-07-08 15:54:00,
2013-07-08 11:59:00,82.4,72.9,25.20,South,188,0.0,9.0,73,0.00,,---,0.00,VWS V14.00,2013-07-08 15:59:00,
2013-07-08 12:04:00,82.3,72.8,25.20,South,187,0.0,9.0,73,0.00,,---,0.00,VWS V14.00,2013-07-08 16:04:00,
2013-07-08 12:09:00,82.1,73.0,25.20,South,174,1.0,5.0,74,0.00,,---,0.00,VWS V14.00,2013-07-08 16:09:00,
2013-07-08 12:14:00,82.2,72.7,25.20,South,175,6.0,7.0,73,0.00,,---,0.00,VWS V14.00,2013-07-08 16:14:00,
2013-07-08 12:19:00,82.5,73.0,25.20,SSE,153,4.0,7.0,73,0.00,,---,0.00,VWS V14.00,2013-07-08 16:19:00,
2013-07-08 12:24:00,82.7,72.8,25.20,SSE,163,4.0,11.0,72,0.00,,---,0.00,VWS V14.00,2013-07-08 16:24:00,
2013-07-08 12:30:00,83.1,73.1,25.20,SSE,156,4.0,11.0,72,0.00,,---,0.00,VWS V14.00,2013-07-08 16:30:00,
2013-07-08 12:35:00,83.3,73.3,25.20,South,178,5.0,11.0,72,0.00,,---,0.00,VWS V14.00,2013-07-08 16:35:00,
2013-07-08 12:40:00,83.4,73.0,25.20,SSE,159,11.0,12.0,71,0.00,,---,0.00,VWS V14.00,2013-07-08 16:40:00,
2013-07-08 12:45:00,83.3,72.5,25.20,South,175,3.0,14.0,70,0.00,,---,0.00,VWS V14.00,2013-07-08 16:45:00,
2013-07-08 12:50:00,83.4,72.6,25.20,SSE,147,7.0,14.0,70,0.00,,---,0.00,VWS V14.00,2013-07-08 16:50:00,
2013-07-08 12:56:00,83.4,72.6,25.20,South,173,9.0,14.0,70,0.00,,---,0.00,VWS V14.00,2013-07-08 16:56:00,
2013-07-08 13:01:00,83.5,72.7,25.20,SSE,149,6.0,14.0,70,0.00,,---,0.00,VWS V14.00,2013-07-08 17:01:00,
2013-07-08 13:06:00,83.7,72.5,25.20,SSW,202,10.0,14.0,69,0.00,,---,0.00,VWS V14.00,2013-07-08 17:06:00,
2013-07-08 13:11:00,83.9,73.1,25.20,SSE,167,6.0,10.0,70,0.00,,---,0.00,VWS V14.00,2013-07-08 17:11:00,
2013-07-08 13:16:00,83.7,72.9,25.20,South,187,2.0,11.0,70,0.00,,---,0.00,VWS V14.00,2013-07-08 17:16:00,
2013-07-08 13:21:00,83.8,73.0,25.20,SSE,152,3.0,11.0,70,0.00,,---,0.00,VWS V14.00,2013-07-08 17:21:00,
2013-07-08 13:27:00,83.9,73.1,25.20,SSW,194,3.0,11.0,70,0.00,,---,0.00,VWS V14.00,2013-07-08 17:27:00,
2013-07-08 13:32:00,84.1,73.3,25.20,SSE,167,4.0,11.0,70,0.00,,---,0.00,VWS V14.00,2013-07-08 17:32:00,
2013-07-08 13:37:00,84.1,72.8,25.20,SSW,202,4.0,5.0,69,0.00,,---,0.00,VWS V14.00,2013-07-08 17:37:00,
2013-07-08 13:43:00,84.1,73.3,25.20,West,259,4.0,11.0,70,0.00,,---,0.00,VWS V14.00,2013-07-08 17:43:00,
2013-07-08 13:48:00,84.2,73.4,25.20,SSW,196,0.0,11.0,70,0.00,,---,0.00,VWS V14.00,2013-07-08 17:48:00,
2013-07-08 13:53:00,84.2,73.8,25.20,South,188,5.0,11.0,71,0.00,,---,0.00,VWS V14.00,2013-07-08 17:53:00,
2013-07-08 13:58:00,84.1,73.3,25.20,SSE,162,3.0,11.0,70,0.00,,---,0.00,VWS V14.00,2013-07-08 17:58:00,
2013-07-08 14:04:00,84.0,73.6,25.20,South,178,6.0,11.0,71,0.00,,---,0.00,VWS V14.00,2013-07-08 18:04:00,
2013-07-08 14:09:00,84.0,73.6,25.20,SSW,196,1.0,5.0,71,0.00,,---,0.00,VWS V14.00,2013-07-08 18:09:00,
2013-07-08 14:14:00,84.2,73.8,25.20,South,181,0.0,6.0,71,0.00,,---,0.00,VWS V14.00,2013-07-08 18:14:00,
2013-07-08 14:20:00,84.2,73.4,25.20,SSE,165,5.0,6.0,70,0.00,,---,0.00,VWS V14.00,2013-07-08 18:20:00,
2013-07-08 14:26:00,84.1,74.1,25.20,SSW,203,2.0,6.0,72,0.00,,---,0.00,VWS V14.00,2013-07-08 18:26:00,
2013-07-08 14:32:00,84.1,73.3,25.20,SSE,152,3.0,6.0,70,0.00,,---,0.00,VWS V14.00,2013-07-08 18:32:00,
2013-07-08 14:37:00,83.9,73.5,25.20,SW,215,5.0,9.0,71,0.00,,---,0.00,VWS V14.00,2013-07-08 18:37:00,
2013-07-08 14:42:00,83.8,73.0,25.20,SSE,167,5.0,7.0,70,0.00,,---,0.00,VWS V14.00,2013-07-08 18:42:00,
2013-07-08 14:47:00,83.8,73.4,25.20,SSW,192,0.0,7.0,71,0.00,,---,0.00,VWS V14.00,2013-07-08 18:47:00,
2013-07-08 14:52:00,83.8,73.4,25.20,SW,232,0.0,7.0,71,0.00,,---,0.00,VWS V14.00,2013-07-08 18:52:00,
2013-07-08 14:57:00,83.7,73.3,25.20,SSW,197,2.0,7.0,71,0.00,,---,0.00,VWS V14.00,2013-07-08 18:57:00,
2013-07-08 15:03:00,83.6,73.6,25.20,SSW,195,0.0,7.0,72,0.00,,---,0.00,VWS V14.00,2013-07-08 19:03:00,
2013-07-08 15:09:00,83.5,73.5,25.20,SSW,195,3.0,4.0,72,0.00,,---,0.00,VWS V14.00,2013-07-08 19:09:00,
2013-07-08 15:14:00,83.4,73.8,25.20,South,175,4.0,4.0,73,0.00,,---,0.00,VWS V14.00,2013-07-08 19:14:00,
2013-07-08 15:20:00,83.2,74.5,25.20,SSE,166,5.0,6.0,75,0.00,,---,0.00,VWS V14.00,2013-07-08 19:20:00,
2013-07-08 15:25:00,82.9,74.6,25.20,South,177,4.0,6.0,76,0.00,,---,0.00,VWS V14.00,2013-07-08 19:25:00,
2013-07-08 15:31:00,82.8,74.1,31.15,SSE,162,7.0,7.0,75,0.00,,---,0.00,VWS V14.00,2013-07-08 19:31:00,
2013-07-08 15:36:00,82.8,74.9,31.15,SSE,168,4.0,8.0,77,0.00,,---,0.00,VWS V14.00,2013-07-08 19:36:00,
2013-07-08 15:42:00,82.7,74.0,31.15,South,180,3.0,6.0,75,0.00,,---,0.00,VWS V14.00,2013-07-08 19:42:00,
2013-07-08 15:47:00,82.7,74.0,31.49,South,169,3.0,7.0,75,0.00,,---,0.00,VWS V14.00,2013-07-08 19:47:00,
2013-07-08 15:52:00,82.8,74.5,31.49,SSE,165,3.0,7.0,76,0.00,,---,0.00,VWS V14.00,2013-07-08 19:52:00,
2013-07-08 15:58:00,82.8,74.5,31.49,SSW,193,4.0,7.0,76,0.00,,---,0.00,VWS V14.00,2013-07-08 19:58:00,
2013-07-08 16:03:00,82.9,74.6,31.49,South,186,0.0,7.0,76,0.00,,---,0.00,VWS V14.00,2013-07-08 20:03:00,
2013-07-08 16:09:00,83.0,74.3,31.49,South,186,0.0,4.0,75,0.00,,---,0.00,VWS V14.00,2013-07-08 20:09:00,
2013-07-08 16:14:00,83.1,74.4,31.49,South,174,4.0,9.0,75,0.00,,---,0.00,VWS V14.00,2013-07-08 20:14:00,
2013-07-08 16:19:00,83.2,74.5,31.49,South,170,3.0,9.0,75,0.00,,---,0.00,VWS V14.00,2013-07-08 20:19:00,
2013-07-08 16:24:00,83.1,74.4,31.49,SSE,165,4.0,9.0,75,0.00,,---,0.00,VWS V14.00,2013-07-08 20:24:00,
2013-07-08 16:29:00,83.2,74.5,31.49,SSE,165,3.0,9.0,75,0.00,,---,0.00,VWS V14.00,2013-07-08 20:29:00,
2013-07-08 16:34:00,83.3,74.2,32.38,South,169,3.0,9.0,74,0.00,,---,0.00,VWS V14.00,2013-07-08 20:34:00,
2013-07-08 16:39:00,83.5,74.3,32.38,SSE,163,4.0,5.0,74,0.00,,---,0.00,VWS V14.00,2013-07-08 20:39:00,
2013-07-08 16:47:00,83.5,74.3,32.38,SSE,150,5.0,10.0,74,0.00,,---,0.00,VWS V14.00,2013-07-08 20:47:00,
2013-07-08 16:53:00,83.6,74.4,32.38,SSE,163,4.0,10.0,74,0.00,,---,0.00,VWS V14.00,2013-07-08 20:53:00,
2013-07-08 16:58:00,83.6,74.4,32.38,SSE,158,5.0,10.0,74,0.00,,---,0.00,VWS V14.00,2013-07-08 20:58:00,
2013-07-08 17:03:00,83.9,74.3,32.38,SSE,165,0.0,10.0,73,0.00,,---,0.00,VWS V14.00,2013-07-08 21:03:00,
2013-07-08 17:09:00,84.2,75.0,32.38,SSE,165,4.0,5.0,74,0.00,,---,0.00,VWS V14.00,2013-07-08 21:09:00,
2013-07-08 17:14:00,84.4,74.8,32.38,SSE,153,5.0,10.0,73,0.00,,---,0.00,VWS V14.00,2013-07-08 21:14:00,
2013-07-08 17:19:00,84.6,74.6,32.38,South,171,10.0,17.0,72,0.00,,---,0.00,VWS V14.00,2013-07-08 21:19:00,
2013-07-08 17:24:00,84.6,74.2,32.38,South,179,15.0,17.0,71,0.00,,---,0.00,VWS V14.00,2013-07-08 21:24:00,
2013-07-08 17:30:00,84.7,73.8,32.38,SSE,154,13.0,17.0,70,0.00,,---,0.00,VWS V14.00,2013-07-08 21:30:00,
2013-07-08 17:35:00,84.8,73.5,32.38,SSE,152,10.0,17.0,69,0.00,,---,0.00,VWS V14.00,2013-07-08 21:35:00,
2013-07-08 17:41:00,84.8,73.1,32.38,SSW,196,13.0,14.0,68,0.00,,---,0.00,VWS V14.00,2013-07-08 21:41:00,
2013-07-08 17:46:00,84.9,73.6,32.38,South,181,7.0,15.0,69,0.00,,---,0.00,VWS V14.00,2013-07-08 21:46:00,
2013-07-08 17:51:00,84.9,74.0,32.38,South,171,10.0,16.0,70,0.00,,---,0.00,VWS V14.00,2013-07-08 21:51:00,
2013-07-08 17:57:00,84.9,73.2,32.38,SSE,167,11.0,16.0,68,0.00,,---,0.00,VWS V14.00,2013-07-08 21:57:00,
2013-07-08 18:02:00,84.9,73.2,32.38,South,172,10.0,16.0,68,0.00,,---,0.00,VWS V14.00,2013-07-08 22:02:00,
2013-07-08 18:07:00,84.8,73.1,32.38,SSE,162,11.0,14.0,68,0.00,,---,0.00,VWS V14.00,2013-07-08 22:07:00,
2013-07-08 18:12:00,84.9,72.7,32.38,South,171,7.0,15.0,67,0.00,,---,0.00,VWS V14.00,2013-07-08 22:12:00,
2013-07-08 18:20:00,84.9,72.7,32.38,South,186,9.0,18.0,67,0.00,,---,0.00,VWS V14.00,2013-07-08 22:20:00,
2013-07-08 18:25:00,84.8,72.6,32.38,South,178,6.0,18.0,67,0.00,,---,0.00,VWS V14.00,2013-07-08 22:25:00,
2013-07-08 18:30:00,84.8,73.1,32.38,South,172,5.0,18.0,68,0.00,,---,0.00,VWS V14.00,2013-07-08 22:30:00,
2013-07-08 18:36:00,84.7,73.0,32.38,SSE,168,5.0,18.0,68,0.00,,---,0.00,VWS V14.00,2013-07-08 22:36:00,
2013-07-08 18:42:00,84.7,73.0,32.38,SSE,164,6.0,9.0,68,0.00,,---,0.00,VWS V14.00,2013-07-08 22:42:00,
2013-07-08 18:48:00,84.7,73.4,32.38,SSE,157,5.0,10.0,69,0.00,,---,0.00,VWS V14.00,2013-07-08 22:48:00,
2013-07-08 18:53:00,84.6,73.3,32.38,SSE,159,4.0,10.0,69,0.00,,---,0.00,VWS V14.00,2013-07-08 22:53:00,
2013-07-08 18:59:00,84.6,73.3,32.38,South,175,4.0,12.0,69,0.00,,---,0.00,VWS V14.00,2013-07-08 22:59:00,
2013-07-08 19:04:00,84.5,73.7,32.38,SSE,166,6.0,12.0,70,0.00,,---,0.00,VWS V14.00,2013-07-08 23:04:00,
2013-07-08 19:10:00,84.5,74.1,32.38,SSE,162,0.0,6.0,71,0.00,,---,0.00,VWS V14.00,2013-07-08 23:10:00,
2013-07-08 19:16:00,84.4,74.0,32.38,South,169,3.0,6.0,71,0.00,,---,0.00,VWS V14.00,2013-07-08 23:16:00,
2013-07-08 19:21:00,84.5,73.7,32.38,South,171,4.0,6.0,70,0.00,,---,0.00,VWS V14.00,2013-07-08 23:21:00,
2013-07-08 19:27:00,84.4,73.6,32.38,South,179,2.0,6.0,70,0.00,,---,0.00,VWS V14.00,2013-07-08 23:27:00,
2013-07-08 19:32:00,84.3,73.5,32.38,SSW,194,3.0,7.0,70,0.00,,---,0.00,VWS V14.00,2013-07-08 23:32:00,
2013-07-08 19:37:00,84.1,73.7,32.38,SSW,196,2.0,4.0,71,0.00,,---,0.00,VWS V14.00,2013-07-08 23:37:00,
2013-07-08 19:42:00,84.0,73.6,32.38,South,186,2.0,5.0,71,0.00,,---,0.00,VWS V14.00,2013-07-08 23:42:00,
2013-07-08 19:48:00,83.7,74.1,32.38,South,188,3.0,6.0,73,0.00,,---,0.00,VWS V14.00,2013-07-08 23:48:00,
2013-07-08 19:53:00,83.5,73.5,32.38,South,174,4.0,8.0,72,0.00,,---,0.00,VWS V14.00,2013-07-08 23:53:00,
2013-07-08 19:58:00,83.4,74.2,32.38,South,173,0.0,8.0,74,0.00,,---,0.00,VWS V14.00,2013-07-08 23:58:00,
2013-07-08 20:03:00,83.3,73.8,32.38,South,173,0.0,8.0,73,0.00,,---,0.00,VWS V14.00,2013-07-09 00:03:00,
2013-07-08 20:08:00,83.2,74.1,31.31,South,173,0.0,0.0,74,0.00,,---,0.00,VWS V14.00,2013-07-09 00:08:00,
2013-07-08 20:14:00,83.1,73.6,31.31,South,173,0.0,5.0,73,0.00,,---,0.00,VWS V14.00,2013-07-09 00:14:00,
2013-07-08 20:19:00,83.0,73.9,31.31,South,173,0.0,5.0,74,0.00,,---,0.00,VWS V14.00,2013-07-09 00:19:00,
2013-07-08 20:24:00,82.9,74.2,31.31,South,173,0.0,5.0,75,0.00,,---,0.00,VWS V14.00,2013-07-09 00:24:00,
2013-07-08 20:30:00,82.5,73.8,31.31,South,173,0.0,5.0,75,0.00,,---,0.00,VWS V14.00,2013-07-09 00:30:00,
2013-07-08 20:35:00,82.0,73.7,31.31,South,173,0.0,5.0,76,0.00,,---,0.00,VWS V14.00,2013-07-09 00:35:00,
2013-07-08 20:40:00,81.5,73.6,26.91,South,173,0.0,1.0,77,0.00,,---,0.00,VWS V14.00,2013-07-09 00:40:00,
2013-07-08 20:46:00,81.0,73.5,26.91,South,173,1.0,2.0,78,0.00,,---,0.00,VWS V14.00,2013-07-09 00:46:00,
2013-07-08 20:51:00,80.6,73.1,24.57,South,174,0.0,3.0,78,0.00,,---,0.00,VWS V14.00,2013-07-09 00:51:00,
2013-07-08 20:57:00,80.4,73.3,24.57,South,178,3.0,4.0,79,0.00,,---,0.00,VWS V14.00,2013-07-09 00:57:00,
2013-07-08 21:02:00,80.3,73.2,24.57,South,178,2.0,4.0,79,0.00,,---,0.00,VWS V14.00,2013-07-09 01:02:00,
2013-07-08 21:07:00,80.1,73.0,24.57,South,178,0.0,4.0,79,0.00,,---,0.00,VWS V14.00,2013-07-09 01:07:00,
2013-07-08 21:12:00,80.0,72.9,24.57,South,178,0.0,1.0,79,0.00,,---,0.00,VWS V14.00,2013-07-09 01:12:00,
2013-07-08 21:17:00,79.9,73.2,24.57,South,178,0.0,1.0,80,0.00,,---,0.00,VWS V14.00,2013-07-09 01:17:00,
2013-07-08 21:23:00,79.7,73.0,24.57,South,178,1.0,2.0,80,0.00,,---,0.00,VWS V14.00,2013-07-09 01:23:00,
2013-07-08 21:28:00,79.6,72.9,24.57,South,178,0.0,3.0,80,0.00,,---,0.00,VWS V14.00,2013-07-09 01:28:00,
2013-07-08 21:33:00,79.3,72.6,24.57,South,178,0.0,3.0,80,0.00,,---,0.00,VWS V14.00,2013-07-09 01:33:00,
2013-07-08 21:38:00,79.2,72.9,24.57,South,178,0.0,0.0,81,0.00,,---,0.00,VWS V14.00,2013-07-09 01:38:00,
2013-07-08 21:43:00,78.9,72.6,24.57,South,178,0.0,3.0,81,0.00,,---,0.00,VWS V14.00,2013-07-09 01:43:00,
2013-07-08 21:48:00,78.8,72.5,24.57,South,178,0.0,4.0,81,0.00,,---,0.00,VWS V14.00,2013-07-09 01:48:00,
2013-07-08 21:53:00,78.7,72.8,24.57,South,178,0.0,4.0,82,0.00,,---,0.00,VWS V14.00,2013-07-09 01:53:00,
2013-07-08 22:00:00,78.5,72.6,24.57,South,178,0.0,4.0,82,0.00,,---,0.00,VWS V14.00,2013-07-09 02:00:00,
2013-07-08 22:05:00,78.4,72.4,24.57,South,178,0.0,4.0,82,0.00,,---,0.00,VWS V14.00,2013-07-09 02:05:00,
2013-07-08 22:10:00,78.4,72.4,24.57,South,178,0.0,1.0,82,0.00,,---,0.00,VWS V14.00,2013-07-09 02:10:00,
2013-07-08 22:16:00,78.2,72.3,24.57,South,178,2.0,2.0,82,0.00,,---,0.00,VWS V14.00,2013-07-09 02:16:00,
2013-07-08 22:21:00,78.2,71.9,24.57,South,178,0.0,3.0,81,0.00,,---,0.00,VWS V14.00,2013-07-09 02:21:00,
2013-07-08 22:26:00,78.2,71.9,24.57,South,178,0.0,3.0,81,0.00,,---,0.00,VWS V14.00,2013-07-09 02:26:00,
2013-07-08 22:32:00,78.0,71.7,24.57,South,178,0.0,3.0,81,0.00,,---,0.00,VWS V14.00,2013-07-09 02:32:00,
2013-07-08 22:37:00,77.8,71.9,24.57,South,178,1.0,3.0,82,0.00,,---,0.00,VWS V14.00,2013-07-09 02:37:00,
2013-07-08 22:42:00,77.6,71.7,24.57,South,178,1.0,2.0,82,0.00,,---,0.00,VWS V14.00,2013-07-09 02:42:00,
2013-07-08 22:48:00,77.4,71.5,24.57,South,178,1.0,2.0,82,0.00,,---,0.00,VWS V14.00,2013-07-09 02:48:00,
2013-07-08 22:53:00,77.2,71.6,24.57,South,178,0.0,2.0,83,0.00,,---,0.00,VWS V14.00,2013-07-09 02:53:00,
2013-07-08 23:00:00,77.2,71.6,24.57,South,178,0.0,4.0,83,0.00,,---,0.00,VWS V14.00,2013-07-09 03:00:00,
2013-07-08 23:06:00,77.2,71.6,24.57,South,178,0.0,4.0,83,0.00,,---,0.01,VWS V14.00,2013-07-09 03:06:00,
2013-07-08 23:11:00,77.3,71.7,24.57,South,178,0.0,1.0,83,0.00,,---,0.01,VWS V14.00,2013-07-09 03:11:00,
2013-07-08 23:16:00,77.3,71.7,24.57,South,178,0.0,1.0,83,0.00,,---,0.01,VWS V14.00,2013-07-09 03:16:00,
2013-07-08 23:21:00,77.3,71.7,24.57,South,178,0.0,1.0,83,0.00,,---,0.01,VWS V14.00,2013-07-09 03:21:00,
2013-07-08 23:26:00,77.3,71.7,24.57,South,178,0.0,2.0,83,0.00,,---,0.01,VWS V14.00,2013-07-09 03:26:00,
2013-07-08 23:31:00,77.3,71.7,24.57,South,178,0.0,2.0,83,0.00,,---,0.01,VWS V14.00,2013-07-09 03:31:00,
2013-07-08 23:36:00,77.3,71.7,24.57,South,178,0.0,2.0,83,0.00,,---,0.01,VWS V14.00,2013-07-09 03:36:00,
2013-07-08 23:43:00,77.3,71.7,24.71,South,178,0.0,0.0,83,0.00,,---,0.01,VWS V14.00,2013-07-09 03:43:00,
2013-07-08 23:49:00,77.3,71.7,24.71,South,178,0.0,0.0,83,0.00,,---,0.01,VWS V14.00,2013-07-09 03:49:00,
2013-07-08 23:54:00,77.3,71.7,24.71,South,178,0.0,2.0,83,0.00,,---,0.01,VWS V14.00,2013-07-09 03:54:00,